createdAt,value
2019-05-18T00:02:11.563Z,10.40
2019-05-18T00:04:40.354Z,10.30
2019-05-18T00:07:09.212Z,10.30
2019-05-18T00:09:38.012Z,10.30
2019-05-18T00:12:06.810Z,10.30
2019-05-18T00:14:35.668Z,10.20
2019-05-18T00:17:07.738Z,10.20
2019-05-18T00:19:34.974Z,10.20
2019-05-18T00:22:03.780Z,10.20
2019-05-18T00:24:32.573Z,10.20
2019-05-18T00:27:01.455Z,10.20
2019-05-18T00:29:30.238Z,10.10
2019-05-18T00:31:59.036Z,10.10
2019-05-18T00:34:27.881Z,10.00
2019-05-18T00:36:56.602Z,10.00
2019-05-18T00:39:25.518Z,9.90
2019-05-18T00:41:54.510Z,9.90
2019-05-18T00:44:23.320Z,9.90
2019-05-18T00:46:52.161Z,9.90
2019-05-18T00:49:20.873Z,9.90
2019-05-18T00:51:49.678Z,9.90
2019-05-18T00:54:18.528Z,9.90
2019-05-18T00:56:47.325Z,9.80
2019-05-18T00:59:16.390Z,9.80
2019-05-18T01:01:45.311Z,9.80
2019-05-18T01:04:14.152Z,9.80
2019-05-18T01:06:43.312Z,9.80
2019-05-18T01:09:12.113Z,9.80
2019-05-18T01:11:40.970Z,9.70
2019-05-18T01:14:09.720Z,9.70
2019-05-18T01:16:38.565Z,9.80
2019-05-18T01:19:07.459Z,9.80
2019-05-18T01:21:36.282Z,9.80
2019-05-18T01:24:05.281Z,9.80
2019-05-18T01:26:34.094Z,9.80
2019-05-18T01:29:04.315Z,9.80
2019-05-18T01:31:34.259Z,9.80
2019-05-18T01:34:03.004Z,9.80
2019-05-18T01:36:31.829Z,9.80
2019-05-18T01:39:00.651Z,9.80
2019-05-18T01:41:30.481Z,9.70
2019-05-18T01:43:59.580Z,9.70
2019-05-18T01:46:28.335Z,9.70
2019-05-18T01:48:57.126Z,9.70
2019-05-18T01:51:25.944Z,9.70
2019-05-18T01:53:55.043Z,9.80
2019-05-18T01:56:23.923Z,9.80
2019-05-18T01:58:52.639Z,9.80
2019-05-18T02:01:21.463Z,9.80
2019-05-18T02:03:50.268Z,9.80
2019-05-18T02:06:20.443Z,9.80
2019-05-18T02:08:49.259Z,9.80
2019-05-18T02:11:18.080Z,9.80
2019-05-18T02:13:46.878Z,9.90
2019-05-18T02:16:15.694Z,9.80
2019-05-18T02:18:44.490Z,9.90
2019-05-18T02:21:13.323Z,9.90
2019-05-18T02:23:42.145Z,9.90
2019-05-18T02:26:10.980Z,9.90
2019-05-18T02:28:39.778Z,9.90
2019-05-18T02:31:08.513Z,9.90
2019-05-18T02:33:37.352Z,9.90
2019-05-18T02:36:06.484Z,9.90
2019-05-18T02:38:35.667Z,10.00
2019-05-18T02:41:04.987Z,10.00
2019-05-18T02:43:33.759Z,10.00
2019-05-18T02:46:02.582Z,9.90
2019-05-18T02:48:47.813Z,9.90
2019-05-18T02:51:01.867Z,9.90
2019-05-18T02:53:30.705Z,9.90
2019-05-18T02:55:59.510Z,9.80
2019-05-18T02:58:28.416Z,9.80
2019-05-18T03:00:57.502Z,9.80
2019-05-18T03:03:26.353Z,9.80
2019-05-18T03:05:55.716Z,9.80
2019-05-18T03:08:24.895Z,9.80
2019-05-18T03:10:53.784Z,9.80
2019-05-18T03:13:22.758Z,9.80
2019-05-18T03:15:51.473Z,9.80
2019-05-18T03:18:20.388Z,9.80
2019-05-18T03:20:49.230Z,9.80
2019-05-18T03:23:18.022Z,9.80
2019-05-18T03:25:46.827Z,9.80
2019-05-18T03:28:15.651Z,9.80
2019-05-18T03:30:44.553Z,9.80
2019-05-18T03:33:13.651Z,9.90
2019-05-18T03:35:42.481Z,9.80
2019-05-18T03:38:11.304Z,9.80
2019-05-18T03:40:40.151Z,9.80
2019-05-18T03:43:08.957Z,9.80
2019-05-18T03:45:37.790Z,9.80
2019-05-18T03:48:06.604Z,9.80
2019-05-18T03:50:35.399Z,9.80
2019-05-18T03:53:04.243Z,9.70
2019-05-18T03:55:33.300Z,9.70
2019-05-18T03:58:02.104Z,9.70
2019-05-18T04:00:30.893Z,9.70
2019-05-18T04:02:59.913Z,9.80
2019-05-18T04:05:29.605Z,9.80
2019-05-18T04:07:58.409Z,9.80
2019-05-18T04:10:47.951Z,9.80
2019-05-18T04:13:16.755Z,9.80
2019-05-18T04:15:45.603Z,9.80
2019-05-18T04:18:14.410Z,9.80
2019-05-18T04:20:43.207Z,9.90
2019-05-18T04:23:12.040Z,9.90
2019-05-18T04:25:43.728Z,9.90
2019-05-18T04:28:11.314Z,10.00
2019-05-18T04:30:40.133Z,10.00
2019-05-18T04:33:08.971Z,10.00
2019-05-18T04:35:38.147Z,10.00
2019-05-18T04:38:07.339Z,10.00
2019-05-18T04:40:36.176Z,10.00
2019-05-18T04:43:04.988Z,10.00
2019-05-18T04:45:33.752Z,10.00
2019-05-18T04:48:02.553Z,9.90
2019-05-18T04:50:31.394Z,9.90
2019-05-18T04:53:00.198Z,10.00
2019-05-18T04:55:29.360Z,10.00
2019-05-18T04:57:58.183Z,10.00
2019-05-18T05:00:26.990Z,10.00
2019-05-18T05:02:55.926Z,10.00
2019-05-18T05:05:24.715Z,10.00
2019-05-18T05:07:53.570Z,10.00
2019-05-18T05:10:23.714Z,10.00
2019-05-18T05:12:52.570Z,10.00
2019-05-18T05:15:21.378Z,10.00
2019-05-18T05:17:50.222Z,10.10
2019-05-18T05:20:20.214Z,10.10
2019-05-18T05:22:49.180Z,10.10
2019-05-18T05:25:18.009Z,10.10
2019-05-18T05:27:46.799Z,10.20
2019-05-18T05:30:15.859Z,10.20
2019-05-18T05:32:44.765Z,10.20
2019-05-18T05:35:13.583Z,10.20
2019-05-18T05:37:42.428Z,10.30
2019-05-18T05:40:11.434Z,10.30
2019-05-18T05:42:40.240Z,10.30
2019-05-18T05:45:09.408Z,10.30
2019-05-18T05:47:38.206Z,10.30
2019-05-18T05:50:08.954Z,10.30
2019-05-18T05:52:37.852Z,10.30
2019-05-18T05:55:08.747Z,10.40
2019-05-18T05:57:37.594Z,10.40
2019-05-18T06:00:08.271Z,10.40
2019-05-18T06:02:37.491Z,10.40
2019-05-18T06:05:07.427Z,10.40
2019-05-18T06:07:36.265Z,10.30
2019-05-18T06:10:06.946Z,10.30
2019-05-18T06:12:35.774Z,10.20
2019-05-18T06:15:06.580Z,10.20
2019-05-18T06:17:35.403Z,10.20
2019-05-18T06:20:06.648Z,10.10
2019-05-18T06:22:35.502Z,10.10
2019-05-18T06:25:06.045Z,10.10
2019-05-18T06:27:34.910Z,10.10
2019-05-18T06:30:04.259Z,10.10
2019-05-18T06:32:33.456Z,10.00
2019-05-18T06:35:02.242Z,10.00
2019-05-18T06:37:31.077Z,10.00
2019-05-18T06:39:59.889Z,10.00
2019-05-18T06:42:28.745Z,10.00
2019-05-18T06:44:57.559Z,10.00
2019-05-18T06:47:26.383Z,10.00
2019-05-18T06:49:55.212Z,10.00
2019-05-18T06:52:24.033Z,10.00
2019-05-18T06:54:52.864Z,10.00
2019-05-18T06:57:23.608Z,10.00
2019-05-18T06:59:52.815Z,10.00
2019-05-18T07:02:21.652Z,10.00
2019-05-18T07:04:50.461Z,10.00
2019-05-18T07:07:19.270Z,10.00
2019-05-18T07:09:48.101Z,9.90
2019-05-18T07:12:17.227Z,10.00
2019-05-18T07:14:46.038Z,10.00
2019-05-18T07:17:14.804Z,10.00
2019-05-18T07:19:43.982Z,10.00
2019-05-18T07:22:13.127Z,10.00
2019-05-18T07:24:41.924Z,10.00
2019-05-18T07:27:10.762Z,10.00
2019-05-18T07:29:39.564Z,10.10
2019-05-18T07:32:08.398Z,10.10
2019-05-18T07:34:37.644Z,10.10
2019-05-18T07:37:06.842Z,10.10
2019-05-18T07:39:36.263Z,10.20
2019-05-18T07:42:05.270Z,10.10
2019-05-18T07:44:34.320Z,10.10
2019-05-18T07:47:03.136Z,10.10
2019-05-18T07:49:32.305Z,10.20
2019-05-18T07:52:01.499Z,10.10
2019-05-18T07:54:30.300Z,10.10
2019-05-18T07:56:59.481Z,10.10
2019-05-18T07:59:28.351Z,10.10
2019-05-18T08:01:57.153Z,10.10
2019-05-18T08:04:26.006Z,10.10
2019-05-18T08:06:55.230Z,10.20
2019-05-18T08:09:23.961Z,10.20
2019-05-18T08:11:52.799Z,10.20
2019-05-18T08:14:21.621Z,10.20
2019-05-18T08:16:50.450Z,10.10
2019-05-18T08:19:19.240Z,10.10
2019-05-18T08:21:53.314Z,10.10
2019-05-18T08:24:19.002Z,10.20
2019-05-18T08:26:47.854Z,10.20
2019-05-18T08:29:16.666Z,10.20
2019-05-18T08:31:45.433Z,10.30
2019-05-18T08:34:14.283Z,10.30
2019-05-18T08:36:43.460Z,10.30
2019-05-18T08:39:12.339Z,10.30
2019-05-18T08:41:41.132Z,10.40
2019-05-18T08:44:09.921Z,10.40
2019-05-18T08:46:38.714Z,10.40
2019-05-18T08:49:07.541Z,10.30
2019-05-18T08:51:36.381Z,10.30
2019-05-18T08:54:05.162Z,10.30
2019-05-18T08:56:33.928Z,10.20
2019-05-18T08:59:03.726Z,10.30
2019-05-18T09:01:32.967Z,10.20
2019-05-18T09:04:01.777Z,10.20
2019-05-18T09:06:30.616Z,10.20
2019-05-18T09:08:59.413Z,10.20
2019-05-18T09:11:28.261Z,10.20
2019-05-18T09:13:57.056Z,10.20
2019-05-18T09:16:26.761Z,10.20
2019-05-18T09:18:55.566Z,10.20
2019-05-18T09:21:24.782Z,10.20
2019-05-18T09:23:53.662Z,10.20
2019-05-18T09:26:22.554Z,10.20
2019-05-18T09:28:51.475Z,10.20
2019-05-18T09:31:20.238Z,10.10
2019-05-18T09:33:49.079Z,10.10
2019-05-18T09:36:18.239Z,10.10
2019-05-18T09:38:47.075Z,10.10
2019-05-18T09:41:15.885Z,10.00
2019-05-18T09:43:44.716Z,10.00
2019-05-18T09:46:13.564Z,10.00
2019-05-18T09:48:42.362Z,10.00
2019-05-18T09:51:11.358Z,9.90
2019-05-18T09:53:50.742Z,10.00
2019-05-18T09:56:10.714Z,10.00
2019-05-18T09:58:39.464Z,10.00
2019-05-18T10:01:08.665Z,10.00
2019-05-18T10:03:37.858Z,10.00
2019-05-18T10:06:06.671Z,10.00
2019-05-18T10:08:35.470Z,10.00
2019-05-18T10:11:04.299Z,10.00
2019-05-18T10:13:33.094Z,10.00
2019-05-18T10:16:01.975Z,10.10
2019-05-18T10:18:30.770Z,10.10
2019-05-18T10:20:59.860Z,10.10
2019-05-18T10:23:28.707Z,10.10
2019-05-18T10:25:57.433Z,10.10
2019-05-18T10:28:26.276Z,10.10
2019-05-18T10:30:55.066Z,10.10
2019-05-18T10:33:24.217Z,10.10
2019-05-18T10:35:53.082Z,10.10
2019-05-18T10:38:21.933Z,10.10
2019-05-18T10:40:50.728Z,10.10
2019-05-18T10:43:19.508Z,10.10
2019-05-18T10:45:48.301Z,10.10
2019-05-18T10:48:17.097Z,10.10
2019-05-18T10:50:46.067Z,10.10
2019-05-18T10:53:27.935Z,10.20
2019-05-18T10:55:45.722Z,10.20
2019-05-18T10:58:14.566Z,10.20
2019-05-18T11:00:43.411Z,10.10
2019-05-18T11:03:12.243Z,10.20
2019-05-18T11:05:41.419Z,10.20
2019-05-18T11:08:10.235Z,10.10
2019-05-18T11:10:38.998Z,10.10
2019-05-18T11:13:07.835Z,10.20
2019-05-18T11:15:36.656Z,10.10
2019-05-18T11:18:05.564Z,10.10
2019-05-18T11:20:34.343Z,10.10
2019-05-18T11:23:03.131Z,10.20
2019-05-18T11:25:31.966Z,10.10
2019-05-18T11:28:00.724Z,10.20
2019-05-18T11:30:29.528Z,10.20
2019-05-18T11:32:58.363Z,10.10
2019-05-18T11:35:27.153Z,10.10
2019-05-18T11:37:55.917Z,10.10
2019-05-18T11:40:25.569Z,10.10
2019-05-18T11:42:54.395Z,10.10
2019-05-18T11:45:25.195Z,10.10
2019-05-18T11:47:54.063Z,10.20
2019-05-18T11:50:23.267Z,10.20
2019-05-18T11:52:52.099Z,10.20
2019-05-18T11:55:21.356Z,10.20
2019-05-18T11:57:50.153Z,10.20
2019-05-18T12:00:19.688Z,10.20
2019-05-18T12:02:48.548Z,10.30
2019-05-18T12:05:17.707Z,10.30
2019-05-18T12:07:47.530Z,10.30
2019-05-18T12:10:18.848Z,10.30
2019-05-18T12:12:47.752Z,10.40
2019-05-18T12:15:18.327Z,10.40
2019-05-18T12:17:47.167Z,10.40
2019-05-18T12:20:16.494Z,10.40
2019-05-18T12:22:45.284Z,10.40
2019-05-18T12:25:14.986Z,10.30
2019-05-18T12:27:44.208Z,10.30
2019-05-18T12:30:13.608Z,10.40
2019-05-18T12:32:42.796Z,10.40
2019-05-18T12:35:12.248Z,10.50
2019-05-18T12:37:41.380Z,10.50
2019-05-18T12:40:11.268Z,10.50
2019-05-18T12:42:40.107Z,10.50
2019-05-18T12:45:11.023Z,10.50
2019-05-18T12:47:39.814Z,10.50
2019-05-18T12:50:09.589Z,10.50
2019-05-18T12:52:38.403Z,10.50
2019-05-18T12:55:08.094Z,10.40
2019-05-18T12:57:37.312Z,10.50
2019-05-18T13:00:12.108Z,10.50
2019-05-18T13:02:40.948Z,10.50
2019-05-18T13:05:10.376Z,10.50
2019-05-18T13:07:39.281Z,10.50
2019-05-18T13:10:09.942Z,10.50
2019-05-18T13:12:39.735Z,10.60
2019-05-18T13:15:10.484Z,10.60
2019-05-18T13:17:39.675Z,10.60
2019-05-18T13:20:12.826Z,10.60
2019-05-18T13:22:41.649Z,10.60
2019-05-18T13:25:11.255Z,10.70
2019-05-18T13:27:40.381Z,10.70
2019-05-18T13:30:11.274Z,10.70
2019-05-18T13:32:40.293Z,10.70
2019-05-18T13:35:09.842Z,10.70
2019-05-18T13:37:38.785Z,10.70
2019-05-18T13:40:08.588Z,10.70
2019-05-18T13:42:37.809Z,10.60
2019-05-18T13:45:10.657Z,10.60
2019-05-18T13:47:39.498Z,10.60
2019-05-18T13:50:08.693Z,10.60
2019-05-18T13:52:37.488Z,10.60
2019-05-18T13:55:06.732Z,10.60
2019-05-18T13:57:35.983Z,10.70
2019-05-18T14:00:07.300Z,10.70
2019-05-18T14:02:36.424Z,10.70
2019-05-18T14:05:06.479Z,10.70
2019-05-18T14:07:35.380Z,10.70
2019-05-18T14:10:06.524Z,10.70
2019-05-18T14:12:35.661Z,10.80
2019-05-18T14:15:06.912Z,10.80
2019-05-18T14:17:35.694Z,10.80
2019-05-18T14:20:05.614Z,10.80
2019-05-18T14:22:34.398Z,10.80
2019-05-18T14:25:18.302Z,10.70
2019-05-18T14:27:34.521Z,10.80
2019-05-18T14:30:03.928Z,10.80
2019-05-18T14:32:32.756Z,10.70
2019-05-18T14:35:01.912Z,10.70
2019-05-18T14:37:30.728Z,10.70
2019-05-18T14:39:59.539Z,10.70
2019-05-18T14:42:28.393Z,10.70
2019-05-18T14:44:57.246Z,10.70
2019-05-18T14:47:27.522Z,10.70
2019-05-18T14:49:56.532Z,10.80
2019-05-18T14:52:25.367Z,10.80
2019-05-18T14:54:54.175Z,10.80
2019-05-18T14:57:25.616Z,10.90
2019-05-18T14:59:53.852Z,10.80
2019-05-18T15:02:23.048Z,10.90
2019-05-18T15:04:54.151Z,10.90
2019-05-18T15:07:22.330Z,11.00
2019-05-18T15:09:51.132Z,11.10
2019-05-18T15:12:19.968Z,11.20
2019-05-18T15:14:48.845Z,11.30
2019-05-18T15:17:17.633Z,11.30
2019-05-18T15:19:46.452Z,11.40
2019-05-18T15:22:15.459Z,11.50
2019-05-18T15:24:44.290Z,11.50
2019-05-18T15:27:13.122Z,11.50
2019-05-18T15:29:41.971Z,11.50
2019-05-18T15:32:10.691Z,11.50
2019-05-18T15:34:39.504Z,11.50
2019-05-18T15:37:08.345Z,11.40
2019-05-18T15:39:37.094Z,11.50
2019-05-18T15:42:05.955Z,11.50
2019-05-18T15:44:35.086Z,11.40
2019-05-18T15:47:03.969Z,11.30
2019-05-18T15:49:32.799Z,11.20
2019-05-18T15:52:01.692Z,11.20
2019-05-18T15:54:32.174Z,11.20
2019-05-18T15:57:01.283Z,11.20
2019-05-18T15:59:30.120Z,11.20
2019-05-18T16:01:59.262Z,11.20
2019-05-18T16:04:28.364Z,11.20
2019-05-18T16:06:57.560Z,11.10
2019-05-18T16:09:26.415Z,11.10
2019-05-18T16:11:55.210Z,11.20
2019-05-18T16:14:23.938Z,11.10
2019-05-18T16:16:55.118Z,11.10
2019-05-18T16:19:23.217Z,11.10
2019-05-18T16:21:52.080Z,11.10
2019-05-18T16:24:21.036Z,11.10
2019-05-18T16:26:49.835Z,11.10
2019-05-18T16:29:18.607Z,11.10
2019-05-18T16:31:47.394Z,11.10
2019-05-18T16:34:16.231Z,11.10
2019-05-18T16:36:45.050Z,11.10
2019-05-18T16:39:13.911Z,11.20
2019-05-18T16:41:42.738Z,11.10
2019-05-18T16:44:11.514Z,11.00
2019-05-18T16:46:40.285Z,11.00
2019-05-18T16:49:09.099Z,11.00
2019-05-18T16:51:38.056Z,11.00
2019-05-18T16:54:07.357Z,11.00
2019-05-18T16:56:36.185Z,11.00
2019-05-18T16:59:05.460Z,11.00
2019-05-18T17:01:34.556Z,11.00
2019-05-18T17:04:03.388Z,11.00
2019-05-18T17:06:32.192Z,11.10
2019-05-18T17:09:01.331Z,11.00
2019-05-18T17:11:30.185Z,11.00
2019-05-18T17:13:59.026Z,11.10
2019-05-18T17:16:27.845Z,11.00
2019-05-18T17:18:56.651Z,10.80
2019-05-18T17:21:25.475Z,10.90
2019-05-18T17:23:54.282Z,11.00
2019-05-18T17:26:23.119Z,10.90
2019-05-18T17:28:52.246Z,10.90
2019-05-18T17:31:21.156Z,10.90
2019-05-18T17:33:49.940Z,10.80
2019-05-18T17:36:19.731Z,10.80
2019-05-18T17:38:48.698Z,10.90
2019-05-18T17:41:17.494Z,10.90
2019-05-18T17:43:46.707Z,10.90
2019-05-18T17:46:15.843Z,11.00
2019-05-18T17:48:44.651Z,10.90
2019-05-18T17:51:13.502Z,10.90
2019-05-18T17:53:42.289Z,10.90
2019-05-18T17:56:11.097Z,10.80
2019-05-18T17:58:40.238Z,10.80
2019-05-18T18:01:09.070Z,10.80
2019-05-18T18:03:37.873Z,10.80
2019-05-18T18:06:06.698Z,10.80
2019-05-18T18:08:35.497Z,10.80
2019-05-18T18:11:06.359Z,10.80
2019-05-18T18:13:34.907Z,10.80
2019-05-18T18:16:03.721Z,10.80
2019-05-18T18:18:34.835Z,10.90
2019-05-18T18:21:02.998Z,10.80
2019-05-18T18:23:31.820Z,10.80
2019-05-18T18:26:00.895Z,10.70
2019-05-18T18:28:30.730Z,10.70
2019-05-18T18:30:59.544Z,10.70
2019-05-18T18:33:28.395Z,10.60
2019-05-18T18:35:57.285Z,10.60
2019-05-18T18:38:26.070Z,10.70
2019-05-18T18:40:54.863Z,10.60
2019-05-18T18:43:23.652Z,10.60
2019-05-18T18:45:52.489Z,10.60
2019-05-18T18:48:21.328Z,10.60
2019-05-18T18:50:50.141Z,10.70
2019-05-18T18:53:19.094Z,10.70
2019-05-18T18:55:47.904Z,10.80
2019-05-18T18:58:16.759Z,10.70
2019-05-18T19:00:47.093Z,10.70
2019-05-18T19:03:15.880Z,10.70
2019-05-18T19:05:44.701Z,10.70
2019-05-18T19:08:13.520Z,10.70
2019-05-18T19:10:42.337Z,10.70
2019-05-18T19:13:11.182Z,10.80
2019-05-18T19:15:39.987Z,10.80
2019-05-18T19:18:08.842Z,10.80
2019-05-18T19:20:37.994Z,10.70
2019-05-18T19:23:07.190Z,10.70
2019-05-18T19:25:36.023Z,10.70
2019-05-18T19:28:04.854Z,10.60
2019-05-18T19:30:33.979Z,10.60
2019-05-18T19:33:02.793Z,10.60
2019-05-18T19:35:31.637Z,10.40
2019-05-18T19:38:01.512Z,10.40
2019-05-18T19:40:30.362Z,10.40
2019-05-18T19:42:59.205Z,10.40
2019-05-18T19:45:28.047Z,10.40
2019-05-18T19:47:56.922Z,10.30
2019-05-18T19:50:25.716Z,10.30
2019-05-18T19:52:54.552Z,10.30
2019-05-18T19:55:23.365Z,10.30
2019-05-18T19:57:52.175Z,10.30
2019-05-18T20:00:21.539Z,10.30
2019-05-18T20:02:50.461Z,10.30
2019-05-18T20:05:19.291Z,10.20
2019-05-18T20:07:48.461Z,10.30
2019-05-18T20:10:17.722Z,10.20
2019-05-18T20:12:46.822Z,10.20
2019-05-18T20:15:16.162Z,10.20
2019-05-18T20:17:45.318Z,10.30
2019-05-18T20:20:14.612Z,10.20
2019-05-18T20:22:43.816Z,10.20
2019-05-18T20:25:14.486Z,10.20
2019-05-18T20:27:43.433Z,10.30
2019-05-18T20:30:12.733Z,10.30
2019-05-18T20:32:41.446Z,10.30
2019-05-18T20:35:10.646Z,10.40
2019-05-18T20:37:39.821Z,10.40
2019-05-18T20:40:08.785Z,10.40
2019-05-18T20:42:38.006Z,10.40
2019-05-18T20:45:08.122Z,10.40
2019-05-18T20:47:36.970Z,10.40
2019-05-18T20:50:07.547Z,10.40
2019-05-18T20:52:36.408Z,10.40
2019-05-18T20:55:05.920Z,10.50
2019-05-18T20:57:34.753Z,10.40
2019-05-18T21:00:04.165Z,10.40
2019-05-18T21:02:32.995Z,10.40
2019-05-18T21:05:01.795Z,10.30
2019-05-18T21:07:30.641Z,10.30
2019-05-18T21:09:59.865Z,10.30
2019-05-18T21:12:28.743Z,10.30
2019-05-18T21:14:57.546Z,10.20
2019-05-18T21:17:26.392Z,10.20
2019-05-18T21:19:55.166Z,10.20
2019-05-18T21:22:23.886Z,10.20
2019-05-18T21:24:52.757Z,10.20
2019-05-18T21:27:21.908Z,10.20
2019-05-18T21:29:50.706Z,10.10
2019-05-18T21:32:19.539Z,10.10
2019-05-18T21:34:48.335Z,10.20
2019-05-18T21:37:17.181Z,10.20
2019-05-18T21:39:45.998Z,10.20
2019-05-18T21:42:14.812Z,10.20
2019-05-18T21:44:44.026Z,10.20
2019-05-18T21:47:12.833Z,10.10
2019-05-18T21:49:41.559Z,10.10
2019-05-18T21:52:10.406Z,10.20
2019-05-18T21:54:39.577Z,10.10
2019-05-18T21:57:08.782Z,10.10
2019-05-18T21:59:37.578Z,10.10
2019-05-18T22:02:06.517Z,10.10
2019-05-18T22:04:35.253Z,10.10
2019-05-18T22:07:04.101Z,10.20
2019-05-18T22:09:33.048Z,10.10
2019-05-18T22:12:01.888Z,10.10
2019-05-18T22:14:30.696Z,10.10
2019-05-18T22:16:59.551Z,10.20
2019-05-18T22:19:28.350Z,10.10
2019-05-18T22:21:57.163Z,10.10
2019-05-18T22:24:26.010Z,10.10
2019-05-18T22:26:54.879Z,10.10
2019-05-18T22:29:23.682Z,10.10
2019-05-18T22:31:52.533Z,10.10
2019-05-18T22:34:21.345Z,10.00
2019-05-18T22:36:50.144Z,10.10
2019-05-18T22:39:18.995Z,10.10
2019-05-18T22:41:48.172Z,10.10
2019-05-18T22:44:17.010Z,10.10
2019-05-18T22:46:45.761Z,10.10
2019-05-18T22:49:14.611Z,10.00
2019-05-18T22:51:43.414Z,10.00
2019-05-18T22:54:12.295Z,10.00
2019-05-18T22:56:41.048Z,9.90
2019-05-18T22:59:09.800Z,9.90
2019-05-18T23:01:38.589Z,9.90
2019-05-18T23:04:07.362Z,9.90
2019-05-18T23:06:36.215Z,9.90
2019-05-18T23:09:06.420Z,9.90
2019-05-18T23:11:35.208Z,9.90
2019-05-18T23:14:04.144Z,9.80
2019-05-18T23:16:33.005Z,9.80
2019-05-18T23:19:01.843Z,9.80
2019-05-18T23:21:30.657Z,9.80
2019-05-18T23:23:59.510Z,9.90
2019-05-18T23:26:28.434Z,9.80
2019-05-18T23:28:57.225Z,9.80
2019-05-18T23:31:26.366Z,9.80
2019-05-18T23:33:55.338Z,9.80
2019-05-18T23:36:24.171Z,9.80
2019-05-18T23:38:53.000Z,9.80
2019-05-18T23:41:21.799Z,9.80
2019-05-18T23:43:50.601Z,9.80
2019-05-18T23:46:19.441Z,9.80
2019-05-18T23:48:48.237Z,9.80
2019-05-18T23:51:17.380Z,9.80
2019-05-18T23:53:46.187Z,9.80
2019-05-18T23:56:14.929Z,9.80
2019-05-18T23:58:43.696Z,9.80
